sensor_id;sensor_type;location;lat;lon;timestamp;pressure;altitude;pressure_sealevel;temperature;humidity
52839;BME280;39219;53.678;9.856;2023-04-23T00:01:21;75570.13;;;-147.77;86.64
52839;BME280;39219;53.678;9.856;2023-04-23T00:03:51;75570.13;;;-147.77;86.93
52839;BME280;39219;53.678;9.856;2023-04-23T00:06:21;75562.03;;;-147.77;87.72
52839;BME280;39219;53.678;9.856;2023-04-23T00:08:52;75562.03;;;-147.77;87.65
52839;BME280;39219;53.678;9.856;2023-04-23T00:11:19;75558.00;;;-147.77;88.00
52839;BME280;39219;53.678;9.856;2023-04-23T00:13:46;75566.09;;;-147.77;88.27
52839;BME280;39219;53.678;9.856;2023-04-23T00:16:15;75572.16;;;-147.77;88.86
52839;BME280;39219;53.678;9.856;2023-04-23T00:18:42;75572.16;;;-147.77;89.38
52839;BME280;39219;53.678;9.856;2023-04-23T00:21:08;75574.19;;;-147.77;89.86
52839;BME280;39219;53.678;9.856;2023-04-23T00:23:35;75574.19;;;-147.77;90.27
52839;BME280;39219;53.678;9.856;2023-04-23T00:26:01;75580.25;;;-147.77;90.75
52839;BME280;39219;53.678;9.856;2023-04-23T00:28:28;75594.41;;;-147.77;91.50
52839;BME280;39219;53.678;9.856;2023-04-23T00:30:54;75598.44;;;-147.77;92.18
52839;BME280;39219;53.678;9.856;2023-04-23T00:33:22;75606.53;;;-147.77;92.69
52839;BME280;39219;53.678;9.856;2023-04-23T00:35:48;75608.56;;;-147.77;93.04
52839;BME280;39219;53.678;9.856;2023-04-23T00:38:15;75606.53;;;-147.77;93.49
52839;BME280;39219;53.678;9.856;2023-04-23T00:40:41;75610.59;;;-147.77;93.95
52839;BME280;39219;53.678;9.856;2023-04-23T00:43:08;75606.53;;;-147.77;94.32
52839;BME280;39219;53.678;9.856;2023-04-23T00:45:35;75602.50;;;-147.77;94.36
52839;BME280;39219;53.678;9.856;2023-04-23T00:48:02;75604.53;;;-147.77;94.47
52839;BME280;39219;53.678;9.856;2023-04-23T00:50:30;75608.56;;;-147.77;94.63
52839;BME280;39219;53.678;9.856;2023-04-23T00:52:56;75614.63;;;-147.77;94.82
52839;BME280;39219;53.678;9.856;2023-04-23T00:55:23;75620.69;;;-147.77;94.95
52839;BME280;39219;53.678;9.856;2023-04-23T00:57:49;75624.75;;;-147.77;95.47
52839;BME280;39219;53.678;9.856;2023-04-23T01:00:16;75630.81;;;-147.77;95.81
52839;BME280;39219;53.678;9.856;2023-04-23T01:02:45;75634.84;;;-147.77;95.91
52839;BME280;39219;53.678;9.856;2023-04-23T01:05:14;75632.84;;;-147.77;96.09
52839;BME280;39219;53.678;9.856;2023-04-23T01:07:43;75653.06;;;-147.77;96.50
52839;BME280;39219;53.678;9.856;2023-04-23T01:10:12;75653.06;;;-147.77;97.01
52839;BME280;39219;53.678;9.856;2023-04-23T01:12:38;75663.16;;;-147.77;97.13
52839;BME280;39219;53.678;9.856;2023-04-23T01:15:06;75663.16;;;-147.77;97.73
52839;BME280;39219;53.678;9.856;2023-04-23T01:17:33;75665.19;;;-147.77;97.99
52839;BME280;39219;53.678;9.856;2023-04-23T01:19:59;75659.13;;;-147.77;98.03
52839;BME280;39219;53.678;9.856;2023-04-23T01:22:27;75653.06;;;-147.77;97.85
52839;BME280;39219;53.678;9.856;2023-04-23T01:24:54;75653.06;;;-147.77;98.04
52839;BME280;39219;53.678;9.856;2023-04-23T01:27:21;75653.06;;;-147.77;98.19
52839;BME280;39219;53.678;9.856;2023-04-23T01:29:49;75644.97;;;-147.77;98.19
52839;BME280;39219;53.678;9.856;2023-04-23T01:32:16;75647.00;;;-147.77;98.23
52839;BME280;39219;53.678;9.856;2023-04-23T01:34:43;75651.03;;;-147.77;98.25
52839;BME280;39219;53.678;9.856;2023-04-23T01:37:11;75665.19;;;-147.77;98.58
52839;BME280;39219;53.678;9.856;2023-04-23T01:39:40;75703.63;;;-147.77;93.82
52839;BME280;39219;53.678;9.856;2023-04-23T01:42:06;75764.28;;;-147.77;92.71
52839;BME280;39219;53.678;9.856;2023-04-23T01:44:33;75831.03;;;-147.77;91.40
52839;BME280;39219;53.678;9.856;2023-04-23T01:46:59;75897.78;;;-147.77;91.70
52839;BME280;39219;53.678;9.856;2023-04-23T01:49:26;75930.13;;;-147.77;93.00
52839;BME280;39219;53.678;9.856;2023-04-23T01:51:53;75928.13;;;-147.77;93.41
52839;BME280;39219;53.678;9.856;2023-04-23T01:54:19;75944.31;;;-147.77;91.97
52839;BME280;39219;53.678;9.856;2023-04-23T01:56:47;75956.44;;;-147.77;92.64
52839;BME280;39219;53.678;9.856;2023-04-23T01:59:13;75964.53;;;-147.77;91.97
52839;BME280;39219;53.678;9.856;2023-04-23T02:01:41;75958.47;;;-147.77;92.56
52839;BME280;39219;53.678;9.856;2023-04-23T02:04:09;75966.53;;;-147.77;92.51
52839;BME280;39219;53.678;9.856;2023-04-23T02:06:37;75988.78;;;-147.77;92.33
52839;BME280;39219;53.678;9.856;2023-04-23T02:09:03;76007.00;;;-147.77;92.25
52839;BME280;39219;53.678;9.856;2023-04-23T02:11:29;76009.03;;;-147.77;93.04
52839;BME280;39219;53.678;9.856;2023-04-23T02:13:57;76007.00;;;-147.77;93.59
52839;BME280;39219;53.678;9.856;2023-04-23T02:16:24;76035.31;;;-147.77;92.77
52839;BME280;39219;53.678;9.856;2023-04-23T02:18:50;76019.13;;;-147.77;94.08
52839;BME280;39219;53.678;9.856;2023-04-23T02:21:17;76013.06;;;-147.77;94.32
52839;BME280;39219;53.678;9.856;2023-04-23T02:23:43;76027.22;;;-147.77;93.36
52839;BME280;39219;53.678;9.856;2023-04-23T02:26:10;76033.28;;;-147.77;93.21
52839;BME280;39219;53.678;9.856;2023-04-23T02:28:36;76031.28;;;-147.77;93.38
52839;BME280;39219;53.678;9.856;2023-04-23T02:31:04;76029.25;;;-147.77;93.09
52839;BME280;39219;53.678;9.856;2023-04-23T02:33:31;76039.38;;;-147.77;93.23
52839;BME280;39219;53.678;9.856;2023-04-23T02:35:57;76039.38;;;-147.77;92.98
52839;BME280;39219;53.678;9.856;2023-04-23T02:38:24;76049.47;;;-147.77;92.80
52839;BME280;39219;53.678;9.856;2023-04-23T02:40:50;76049.47;;;-147.77;93.83
52839;BME280;39219;53.678;9.856;2023-04-23T02:43:16;76039.38;;;-147.77;92.99
52839;BME280;39219;53.678;9.856;2023-04-23T02:45:43;76053.53;;;-147.77;92.06
52839;BME280;39219;53.678;9.856;2023-04-23T02:48:11;76057.56;;;-147.77;93.01
52839;BME280;39219;53.678;9.856;2023-04-23T02:50:37;76061.63;;;-147.77;93.09
52839;BME280;39219;53.678;9.856;2023-04-23T02:53:04;76053.53;;;-147.77;93.25
52839;BME280;39219;53.678;9.856;2023-04-23T02:55:30;76067.69;;;-147.77;92.54
52839;BME280;39219;53.678;9.856;2023-04-23T02:57:57;76079.81;;;-147.77;92.71
52839;BME280;39219;53.678;9.856;2023-04-23T03:00:24;76081.84;;;-147.77;92.53
52839;BME280;39219;53.678;9.856;2023-04-23T03:02:50;76104.09;;;-147.77;92.72
52839;BME280;39219;53.678;9.856;2023-04-23T03:05:18;76112.19;;;-147.77;92.57
52839;BME280;39219;53.678;9.856;2023-04-23T03:07:45;76110.16;;;-147.77;93.87
52839;BME280;39219;53.678;9.856;2023-04-23T03:10:11;76142.53;;;-147.77;91.78
52839;BME280;39219;53.678;9.856;2023-04-23T03:12:38;76146.56;;;-147.77;92.47
52839;BME280;39219;53.678;9.856;2023-04-23T03:15:05;76136.44;;;-147.77;93.66
52839;BME280;39219;53.678;9.856;2023-04-23T03:17:32;76134.44;;;-147.77;93.06
52839;BME280;39219;53.678;9.856;2023-04-23T03:19:58;76154.66;;;-147.77;92.63
52839;BME280;39219;53.678;9.856;2023-04-23T03:22:26;76154.66;;;-147.77;93.15
52839;BME280;39219;53.678;9.856;2023-04-23T03:24:53;76172.84;;;-147.77;93.01
52839;BME280;39219;53.678;9.856;2023-04-23T03:27:19;76197.13;;;-147.77;92.43
52839;BME280;39219;53.678;9.856;2023-04-23T03:29:46;76189.03;;;-147.77;93.39
52839;BME280;39219;53.678;9.856;2023-04-23T03:32:12;76185.00;;;-147.77;92.87
52839;BME280;39219;53.678;9.856;2023-04-23T03:34:38;76185.00;;;-147.77;93.38
52839;BME280;39219;53.678;9.856;2023-04-23T03:37:05;76197.13;;;-147.77;93.01
52839;BME280;39219;53.678;9.856;2023-04-23T03:39:33;76195.09;;;-147.77;93.48
52839;BME280;39219;53.678;9.856;2023-04-23T03:41:59;76209.28;;;-147.77;93.38
52839;BME280;39219;53.678;9.856;2023-04-23T03:44:26;76203.19;;;-147.77;92.91
52839;BME280;39219;53.678;9.856;2023-04-23T03:46:52;76195.09;;;-147.77;93.31
52839;BME280;39219;53.678;9.856;2023-04-23T03:49:19;76195.09;;;-147.77;93.02
52839;BME280;39219;53.678;9.856;2023-04-23T03:51:45;76203.19;;;-147.77;92.95
52839;BME280;39219;53.678;9.856;2023-04-23T03:54:11;76201.19;;;-147.77;93.39
52839;BME280;39219;53.678;9.856;2023-04-23T03:56:39;76197.13;;;-147.77;93.44
52839;BME280;39219;53.678;9.856;2023-04-23T03:59:06;76215.34;;;-147.77;92.85
52839;BME280;39219;53.678;9.856;2023-04-23T04:01:33;76215.34;;;-147.77;93.46
52839;BME280;39219;53.678;9.856;2023-04-23T04:04:00;76207.25;;;-147.77;93.68
52839;BME280;39219;53.678;9.856;2023-04-23T04:06:27;76197.13;;;-147.77;93.64
52839;BME280;39219;53.678;9.856;2023-04-23T04:08:53;76201.19;;;-147.77;92.87
52839;BME280;39219;53.678;9.856;2023-04-23T04:11:20;76213.31;;;-147.77;93.24
52839;BME280;39219;53.678;9.856;2023-04-23T04:13:47;76205.22;;;-147.77;93.54
52839;BME280;39219;53.678;9.856;2023-04-23T04:16:14;76229.50;;;-147.77;92.42
52839;BME280;39219;53.678;9.856;2023-04-23T04:18:40;76233.53;;;-147.77;93.67
52839;BME280;39219;53.678;9.856;2023-04-23T04:21:07;76225.44;;;-147.77;93.83
52839;BME280;39219;53.678;9.856;2023-04-23T04:23:34;76233.53;;;-147.77;92.99
52839;BME280;39219;53.678;9.856;2023-04-23T04:26:00;76225.44;;;-147.77;93.89
52839;BME280;39219;53.678;9.856;2023-04-23T04:28:27;76221.41;;;-147.77;93.94
52839;BME280;39219;53.678;9.856;2023-04-23T04:30:55;76227.47;;;-147.77;93.78
52839;BME280;39219;53.678;9.856;2023-04-23T04:33:22;76233.53;;;-147.77;93.61
52839;BME280;39219;53.678;9.856;2023-04-23T04:35:49;76241.63;;;-147.77;94.09
52839;BME280;39219;53.678;9.856;2023-04-23T04:38:16;76245.69;;;-147.77;94.22
52839;BME280;39219;53.678;9.856;2023-04-23T04:40:42;76249.72;;;-147.77;94.10
52839;BME280;39219;53.678;9.856;2023-04-23T04:43:09;76241.63;;;-147.77;94.30
52839;BME280;39219;53.678;9.856;2023-04-23T04:45:36;76241.63;;;-147.77;93.74
52839;BME280;39219;53.678;9.856;2023-04-23T04:48:04;76239.59;;;-147.77;94.12
52839;BME280;39219;53.678;9.856;2023-04-23T04:50:30;76227.47;;;-147.77;94.03
52839;BME280;39219;53.678;9.856;2023-04-23T04:52:57;76227.47;;;-147.77;93.13
52839;BME280;39219;53.678;9.856;2023-04-23T04:55:23;76231.53;;;-147.77;92.57
52839;BME280;39219;53.678;9.856;2023-04-23T04:57:51;76233.53;;;-147.77;93.02
52839;BME280;39219;53.678;9.856;2023-04-23T05:00:20;76235.56;;;-147.77;92.97
52839;BME280;39219;53.678;9.856;2023-04-23T05:02:48;76231.53;;;-147.77;92.86
52839;BME280;39219;53.678;9.856;2023-04-23T05:05:17;76229.50;;;-147.77;92.53
52839;BME280;39219;53.678;9.856;2023-04-23T05:07:44;76231.53;;;-147.77;92.18
52839;BME280;39219;53.678;9.856;2023-04-23T05:10:11;76241.63;;;-147.77;92.09
52839;BME280;39219;53.678;9.856;2023-04-23T05:12:38;76237.59;;;-147.77;92.13
52839;BME280;39219;53.678;9.856;2023-04-23T05:15:06;76239.59;;;-147.77;92.29
52839;BME280;39219;53.678;9.856;2023-04-23T05:17:33;76227.47;;;-147.77;92.04
52839;BME280;39219;53.678;9.856;2023-04-23T05:19:59;76227.47;;;-147.77;91.44
52839;BME280;39219;53.678;9.856;2023-04-23T05:22:27;76233.53;;;-147.77;91.33
52839;BME280;39219;53.678;9.856;2023-04-23T05:24:54;76267.94;;;-147.77;91.92
52839;BME280;39219;53.678;9.856;2023-04-23T05:27:21;76284.09;;;-147.77;92.33
52839;BME280;39219;53.678;9.856;2023-04-23T05:29:47;76306.34;;;-147.77;92.49
52839;BME280;39219;53.678;9.856;2023-04-23T05:32:14;76294.22;;;-147.77;92.92
52839;BME280;39219;53.678;9.856;2023-04-23T05:34:40;76271.97;;;-147.77;93.31
52839;BME280;39219;53.678;9.856;2023-04-23T05:37:07;76271.97;;;-147.77;91.98
52839;BME280;39219;53.678;9.856;2023-04-23T05:39:34;76251.75;;;-147.77;92.29
52839;BME280;39219;53.678;9.856;2023-04-23T05:42:01;76237.59;;;-147.77;91.80
52839;BME280;39219;53.678;9.856;2023-04-23T05:44:28;76237.59;;;-147.77;90.46
52839;BME280;39219;53.678;9.856;2023-04-23T05:46:54;76239.59;;;-147.77;89.63
52839;BME280;39219;53.678;9.856;2023-04-23T05:49:21;76229.50;;;-147.77;89.43
52839;BME280;39219;53.678;9.856;2023-04-23T05:51:48;76233.53;;;-147.77;88.86
52839;BME280;39219;53.678;9.856;2023-04-23T05:54:14;76213.31;;;-147.77;88.59
52839;BME280;39219;53.678;9.856;2023-04-23T05:56:42;76209.28;;;-147.77;87.25
52839;BME280;39219;53.678;9.856;2023-04-23T05:59:09;76233.53;;;-147.77;87.85
52839;BME280;39219;53.678;9.856;2023-04-23T06:01:35;76239.59;;;-147.77;87.64
52839;BME280;39219;53.678;9.856;2023-04-23T06:04:02;76278.03;;;-147.77;88.60
52839;BME280;39219;53.678;9.856;2023-04-23T06:06:29;76294.22;;;-147.77;89.67
52839;BME280;39219;53.678;9.856;2023-04-23T06:08:55;76318.50;;;-147.77;90.82
52839;BME280;39219;53.678;9.856;2023-04-23T06:11:22;76328.59;;;-147.77;90.53
52839;BME280;39219;53.678;9.856;2023-04-23T06:13:50;76346.81;;;-147.77;91.67
52839;BME280;39219;53.678;9.856;2023-04-23T06:16:16;76342.78;;;-147.77;92.16
52839;BME280;39219;53.678;9.856;2023-04-23T06:18:43;76316.47;;;-147.77;92.11
52839;BME280;39219;53.678;9.856;2023-04-23T06:21:09;76286.13;;;-147.77;91.63
52839;BME280;39219;53.678;9.856;2023-04-23T06:23:36;76217.34;;;-147.77;89.60
52839;BME280;39219;53.678;9.856;2023-04-23T06:26:02;76172.84;;;-147.77;88.87
52839;BME280;39219;53.678;9.856;2023-04-23T06:28:29;76136.44;;;-147.77;86.86
52839;BME280;39219;53.678;9.856;2023-04-23T06:30:57;76128.34;;;-147.77;85.14
52839;BME280;39219;53.678;9.856;2023-04-23T06:33:24;76089.94;;;-147.77;84.56
52839;BME280;39219;53.678;9.856;2023-04-23T06:35:50;76037.34;;;-147.77;82.16
52839;BME280;39219;53.678;9.856;2023-04-23T06:38:17;76025.22;;;-147.77;80.46
52839;BME280;39219;53.678;9.856;2023-04-23T06:40:45;75986.78;;;-147.77;79.83
52839;BME280;39219;53.678;9.856;2023-04-23T06:43:11;75960.47;;;-147.77;79.33
52839;BME280;39219;53.678;9.856;2023-04-23T06:45:38;75982.72;;;-147.77;77.93
52839;BME280;39219;53.678;9.856;2023-04-23T06:48:06;76027.22;;;-147.77;78.95
52839;BME280;39219;53.678;9.856;2023-04-23T06:50:33;76041.38;;;-147.77;78.83
52839;BME280;39219;53.678;9.856;2023-04-23T06:52:59;76057.56;;;-147.77;79.94
52839;BME280;39219;53.678;9.856;2023-04-23T06:55:26;76061.63;;;-147.77;80.91
52839;BME280;39219;53.678;9.856;2023-04-23T06:57:53;76045.44;;;-147.77;81.16
52839;BME280;39219;53.678;9.856;2023-04-23T07:00:21;76104.09;;;-147.77;81.67
52839;BME280;39219;53.678;9.856;2023-04-23T07:02:47;76140.50;;;-147.77;82.10
52839;BME280;39219;53.678;9.856;2023-04-23T07:05:15;76128.34;;;-147.77;83.08
52839;BME280;39219;53.678;9.856;2023-04-23T07:07:42;76106.09;;;-147.77;82.44
52839;BME280;39219;53.678;9.856;2023-04-23T07:10:09;76047.44;;;-147.77;82.50
52839;BME280;39219;53.678;9.856;2023-04-23T07:12:37;76035.31;;;-147.77;79.73
52839;BME280;39219;53.678;9.856;2023-04-23T07:15:04;76067.69;;;-147.77;80.59
52839;BME280;39219;53.678;9.856;2023-04-23T07:17:32;76156.69;;;-147.77;80.76
52839;BME280;39219;53.678;9.856;2023-04-23T07:19:58;76172.84;;;-147.77;82.01
52839;BME280;39219;53.678;9.856;2023-04-23T07:22:26;76180.94;;;-147.77;83.69
52839;BME280;39219;53.678;9.856;2023-04-23T07:24:52;76185.00;;;-147.77;82.38
52839;BME280;39219;53.678;9.856;2023-04-23T07:27:19;76176.91;;;-147.77;83.21
52839;BME280;39219;53.678;9.856;2023-04-23T07:29:45;76197.13;;;-147.77;83.74
52839;BME280;39219;53.678;9.856;2023-04-23T07:32:12;76197.13;;;-147.77;85.57
52839;BME280;39219;53.678;9.856;2023-04-23T07:34:38;76191.06;;;-147.77;85.19
52839;BME280;39219;53.678;9.856;2023-04-23T07:37:05;76178.94;;;-147.77;85.17
52839;BME280;39219;53.678;9.856;2023-04-23T07:39:33;76170.84;;;-147.77;83.98
52839;BME280;39219;53.678;9.856;2023-04-23T07:41:59;76164.78;;;-147.77;85.26
52839;BME280;39219;53.678;9.856;2023-04-23T07:44:26;76156.69;;;-147.77;82.97
52839;BME280;39219;53.678;9.856;2023-04-23T07:46:53;76170.84;;;-147.77;81.40
52839;BME280;39219;53.678;9.856;2023-04-23T07:49:19;76166.78;;;-147.77;82.95
52839;BME280;39219;53.678;9.856;2023-04-23T07:51:46;76162.75;;;-147.77;82.23
52839;BME280;39219;53.678;9.856;2023-04-23T07:54:13;76132.41;;;-147.77;82.24
52839;BME280;39219;53.678;9.856;2023-04-23T07:56:41;76106.09;;;-147.77;79.83
52839;BME280;39219;53.678;9.856;2023-04-23T07:59:07;75994.88;;;-147.77;80.12
52839;BME280;39219;53.678;9.856;2023-04-23T08:01:34;75962.50;;;-147.77;75.92
52839;BME280;39219;53.678;9.856;2023-04-23T08:04:00;75911.94;;;-147.77;75.09
52839;BME280;39219;53.678;9.856;2023-04-23T08:06:27;75885.66;;;-147.77;72.94
52839;BME280;39219;53.678;9.856;2023-04-23T08:08:55;75932.16;;;-147.77;71.32
52839;BME280;39219;53.678;9.856;2023-04-23T08:11:22;75920.03;;;-147.77;71.72
52839;BME280;39219;53.678;9.856;2023-04-23T08:13:50;75897.78;;;-147.77;72.52
52839;BME280;39219;53.678;9.856;2023-04-23T08:16:16;75928.13;;;-147.77;70.86
52839;BME280;39219;53.678;9.856;2023-04-23T08:18:43;75958.47;;;-147.77;72.96
52839;BME280;39219;53.678;9.856;2023-04-23T08:21:09;76027.22;;;-147.77;73.09
52839;BME280;39219;53.678;9.856;2023-04-23T08:23:37;76065.66;;;-147.77;76.51
52839;BME280;39219;53.678;9.856;2023-04-23T08:26:03;76075.78;;;-147.77;74.67
52839;BME280;39219;53.678;9.856;2023-04-23T08:28:30;76061.63;;;-147.77;78.30
52839;BME280;39219;53.678;9.856;2023-04-23T08:30:57;76027.22;;;-147.77;75.39
52839;BME280;39219;53.678;9.856;2023-04-23T08:33:24;75954.41;;;-147.77;74.98
52839;BME280;39219;53.678;9.856;2023-04-23T08:35:51;75885.66;;;-147.77;72.52
52839;BME280;39219;53.678;9.856;2023-04-23T08:38:17;75936.22;;;-147.77;73.53
52839;BME280;39219;53.678;9.856;2023-04-23T08:40:44;75952.38;;;-147.77;73.29
52839;BME280;39219;53.678;9.856;2023-04-23T08:43:15;75889.69;;;-147.77;73.60
52839;BME280;39219;53.678;9.856;2023-04-23T08:45:46;75867.44;;;-147.77;71.02
52839;BME280;39219;53.678;9.856;2023-04-23T08:48:14;75915.97;;;-147.77;72.25
52839;BME280;39219;53.678;9.856;2023-04-23T08:50:42;75930.13;;;-147.77;75.61
52839;BME280;39219;53.678;9.856;2023-04-23T08:53:08;75946.31;;;-147.77;72.76
52839;BME280;39219;53.678;9.856;2023-04-23T08:55:35;75926.09;;;-147.77;72.29
52839;BME280;39219;53.678;9.856;2023-04-23T08:58:03;75849.25;;;-147.77;71.21
52839;BME280;39219;53.678;9.856;2023-04-23T09:00:31;75776.44;;;-147.77;67.87
52839;BME280;39219;53.678;9.856;2023-04-23T09:02:58;75659.13;;;-147.77;68.70
52839;BME280;39219;53.678;9.856;2023-04-23T09:05:27;75657.09;;;-147.77;64.27
52839;BME280;39219;53.678;9.856;2023-04-23T09:07:53;75624.75;;;-147.77;62.88
52839;BME280;39219;53.678;9.856;2023-04-23T09:10:20;75655.06;;;-147.77;62.55
52839;BME280;39219;53.678;9.856;2023-04-23T09:12:47;75659.13;;;-147.77;62.01
52839;BME280;39219;53.678;9.856;2023-04-23T09:15:13;75683.41;;;-147.77;63.57
52839;BME280;39219;53.678;9.856;2023-04-23T09:17:42;75711.72;;;-147.77;63.09
52839;BME280;39219;53.678;9.856;2023-04-23T09:20:10;75661.16;;;-147.77;60.25
52839;BME280;39219;53.678;9.856;2023-04-23T09:22:40;75677.31;;;-147.77;63.19
52839;BME280;39219;53.678;9.856;2023-04-23T09:25:08;75699.56;;;-147.77;62.98
52839;BME280;39219;53.678;9.856;2023-04-23T09:27:35;75663.16;;;-147.77;60.96
52839;BME280;39219;53.678;9.856;2023-04-23T09:30:02;75699.56;;;-147.77;61.23
52839;BME280;39219;53.678;9.856;2023-04-23T09:32:32;75699.56;;;-147.77;60.02
52839;BME280;39219;53.678;9.856;2023-04-23T09:35:01;75626.75;;;-147.77;61.53
52839;BME280;39219;53.678;9.856;2023-04-23T09:37:28;75572.16;;;-147.77;54.60
52839;BME280;39219;53.678;9.856;2023-04-23T09:39:57;75497.34;;;-147.77;57.56
52839;BME280;39219;53.678;9.856;2023-04-23T09:42:26;75460.94;;;-147.77;59.05
52839;BME280;39219;53.678;9.856;2023-04-23T09:44:55;75378.00;;;-147.77;56.31
52839;BME280;39219;53.678;9.856;2023-04-23T09:47:21;75386.09;;;-147.77;53.66
52839;BME280;39219;53.678;9.856;2023-04-23T09:49:49;75440.72;;;-147.77;51.66
52839;BME280;39219;53.678;9.856;2023-04-23T09:52:16;75462.94;;;-147.77;56.32
52839;BME280;39219;53.678;9.856;2023-04-23T09:54:42;75481.16;;;-147.77;54.58
52839;BME280;39219;53.678;9.856;2023-04-23T09:57:12;75446.78;;;-147.77;54.79
52839;BME280;39219;53.678;9.856;2023-04-23T09:59:38;75497.34;;;-147.77;58.57
52839;BME280;39219;53.678;9.856;2023-04-23T10:02:06;75432.63;;;-147.77;54.41
52839;BME280;39219;53.678;9.856;2023-04-23T10:04:33;75471.03;;;-147.77;57.40
52839;BME280;39219;53.678;9.856;2023-04-23T10:07:01;75505.41;;;-147.77;54.35
52839;BME280;39219;53.678;9.856;2023-04-23T10:09:30;75434.63;;;-147.77;53.87
52839;BME280;39219;53.678;9.856;2023-04-23T10:11:57;75390.16;;;-147.77;54.67
52839;BME280;39219;53.678;9.856;2023-04-23T10:14:28;75426.56;;;-147.77;53.23
52839;BME280;39219;53.678;9.856;2023-04-23T10:16:56;75422.50;;;-147.77;52.17
52839;BME280;39219;53.678;9.856;2023-04-23T10:19:24;75426.56;;;-147.77;52.37
52839;BME280;39219;53.678;9.856;2023-04-23T10:21:53;75412.38;;;-147.77;51.25
52839;BME280;39219;53.678;9.856;2023-04-23T10:24:22;75343.63;;;-147.77;54.58
52839;BME280;39219;53.678;9.856;2023-04-23T10:26:50;75361.84;;;-147.77;52.55
52839;BME280;39219;53.678;9.856;2023-04-23T10:29:20;75341.63;;;-147.77;52.50
52839;BME280;39219;53.678;9.856;2023-04-23T10:31:54;75268.81;;;-147.77;47.34
52839;BME280;39219;53.678;9.856;2023-04-23T10:34:23;75262.75;;;-147.77;49.79
52839;BME280;39219;53.678;9.856;2023-04-23T10:36:50;75323.41;;;-147.77;47.85
52839;BME280;39219;53.678;9.856;2023-04-23T10:39:19;75307.22;;;-147.77;49.72
52839;BME280;39219;53.678;9.856;2023-04-23T10:41:47;75365.88;;;-147.77;49.75
52839;BME280;39219;53.678;9.856;2023-04-23T10:44:14;75369.91;;;-147.77;49.96
52839;BME280;39219;53.678;9.856;2023-04-23T10:46:49;75311.28;;;-147.77;50.83
52839;BME280;39219;53.678;9.856;2023-04-23T10:49:18;75246.56;;;-147.77;53.30
52839;BME280;39219;53.678;9.856;2023-04-23T10:51:47;75191.97;;;-147.77;48.37
52839;BME280;39219;53.678;9.856;2023-04-23T10:54:14;75212.19;;;-147.77;49.33
52839;BME280;39219;53.678;9.856;2023-04-23T10:56:42;75218.25;;;-147.77;49.73
52839;BME280;39219;53.678;9.856;2023-04-23T10:59:17;75173.75;;;-147.77;48.15
52839;BME280;39219;53.678;9.856;2023-04-23T11:01:45;75202.06;;;-147.77;47.91
52839;BME280;39219;53.678;9.856;2023-04-23T11:04:23;75194.00;;;-147.77;49.63
52839;BME280;39219;53.678;9.856;2023-04-23T11:06:52;75149.50;;;-147.77;48.66
52839;BME280;39219;53.678;9.856;2023-04-23T11:09:30;75167.69;;;-147.77;48.37
52839;BME280;39219;53.678;9.856;2023-04-23T11:11:57;75141.41;;;-147.77;48.58
52839;BME280;39219;53.678;9.856;2023-04-23T11:14:34;75167.69;;;-147.77;48.81
52839;BME280;39219;53.678;9.856;2023-04-23T11:17:01;75155.56;;;-147.77;45.62
52839;BME280;39219;53.678;9.856;2023-04-23T11:19:30;75147.47;;;-147.77;45.78
52839;BME280;39219;53.678;9.856;2023-04-23T11:22:01;75137.38;;;-147.77;48.29
52839;BME280;39219;53.678;9.856;2023-04-23T11:24:30;75139.38;;;-147.77;44.96
52839;BME280;39219;53.678;9.856;2023-04-23T11:26:56;75129.28;;;-147.77;46.44
52839;BME280;39219;53.678;9.856;2023-04-23T11:29:25;75109.06;;;-147.77;49.09
52839;BME280;39219;53.678;9.856;2023-04-23T11:31:52;75054.47;;;-147.77;47.05
52839;BME280;39219;53.678;9.856;2023-04-23T11:34:19;75080.75;;;-147.77;44.78
52839;BME280;39219;53.678;9.856;2023-04-23T11:36:51;75123.22;;;-147.77;45.11
52839;BME280;39219;53.678;9.856;2023-04-23T11:39:18;75163.66;;;-147.77;44.79
52839;BME280;39219;53.678;9.856;2023-04-23T11:41:44;75135.34;;;-147.77;46.35
52839;BME280;39219;53.678;9.856;2023-04-23T11:44:12;75161.63;;;-147.77;43.74
52839;BME280;39219;53.678;9.856;2023-04-23T11:46:38;75107.03;;;-147.77;45.85
52839;BME280;39219;53.678;9.856;2023-04-23T11:49:05;75088.84;;;-147.77;43.08
52839;BME280;39219;53.678;9.856;2023-04-23T11:51:33;75096.91;;;-147.77;46.56
52839;BME280;39219;53.678;9.856;2023-04-23T11:54:05;75109.06;;;-147.77;45.67
52839;BME280;39219;53.678;9.856;2023-04-23T11:56:32;75094.91;;;-147.77;46.10
52839;BME280;39219;53.678;9.856;2023-04-23T11:58:59;75072.66;;;-147.77;43.94
52839;BME280;39219;53.678;9.856;2023-04-23T12:01:41;75052.44;;;-147.77;43.74
52839;BME280;39219;53.678;9.856;2023-04-23T12:04:12;75046.38;;;-147.77;47.08
52839;BME280;39219;53.678;9.856;2023-04-23T12:06:41;75007.94;;;-147.77;44.82
52839;BME280;39219;53.678;9.856;2023-04-23T12:09:09;75007.94;;;-147.77;45.33
52839;BME280;39219;53.678;9.856;2023-04-23T12:11:37;75016.03;;;-147.77;43.88
52839;BME280;39219;53.678;9.856;2023-04-23T12:14:04;74997.84;;;-147.77;45.79
52839;BME280;39219;53.678;9.856;2023-04-23T12:16:34;75066.59;;;-147.77;43.44
52839;BME280;39219;53.678;9.856;2023-04-23T12:19:00;75088.84;;;-147.77;46.98
52839;BME280;39219;53.678;9.856;2023-04-23T12:21:27;75084.78;;;-147.77;47.16
52839;BME280;39219;53.678;9.856;2023-04-23T12:23:54;75044.34;;;-147.77;46.59
52839;BME280;39219;53.678;9.856;2023-04-23T12:26:24;75030.19;;;-147.77;44.94
52839;BME280;39219;53.678;9.856;2023-04-23T12:28:51;75018.06;;;-147.77;45.40
52839;BME280;39219;53.678;9.856;2023-04-23T12:31:18;75014.00;;;-147.77;43.13
52839;BME280;39219;53.678;9.856;2023-04-23T12:33:45;75018.06;;;-147.77;45.04
52839;BME280;39219;53.678;9.856;2023-04-23T12:36:14;75020.09;;;-147.77;44.49
52839;BME280;39219;53.678;9.856;2023-04-23T12:38:41;75003.91;;;-147.77;46.93
52839;BME280;39219;53.678;9.856;2023-04-23T12:41:08;75024.13;;;-147.77;43.02